sensor_id;sensor_type;location;lat;lon;timestamp;pressure;altitude;pressure_sealevel;temperature;humidity
38267;BME280;24063;51.794;19.578;2022-08-18T00:00:24;98273.47;;;21.10;92.75
38267;BME280;24063;51.794;19.578;2022-08-18T00:01:36;98272.39;;;21.11;92.63
38267;BME280;24063;51.794;19.578;2022-08-18T00:02:42;98272.44;;;21.10;92.56
38267;BME280;24063;51.794;19.578;2022-08-18T00:04:02;98270.67;;;21.11;92.56
38267;BME280;24063;51.794;19.578;2022-08-18T00:05:24;98270.69;;;21.12;92.53
38267;BME280;24063;51.794;19.578;2022-08-18T00:06:28;98276.03;;;21.12;92.42
38267;BME280;24063;51.794;19.578;2022-08-18T00:07:32;98276.14;;;21.13;92.16
38267;BME280;24063;51.794;19.578;2022-08-18T00:08:34;98275.75;;;21.13;92.03
38267;BME280;24063;51.794;19.578;2022-08-18T00:09:40;98277.32;;;21.13;91.96
38267;BME280;24063;51.794;19.578;2022-08-18T00:10:42;98278.19;;;21.13;91.95
38267;BME280;24063;51.794;19.578;2022-08-18T00:11:44;98274.61;;;21.15;92.08
38267;BME280;24063;51.794;19.578;2022-08-18T00:12:46;98277.13;;;21.15;91.90
38267;BME280;24063;51.794;19.578;2022-08-18T00:13:48;98274.61;;;21.15;92.18
38267;BME280;24063;51.794;19.578;2022-08-18T00:14:51;98279.39;;;21.15;92.12
38267;BME280;24063;51.794;19.578;2022-08-18T00:15:53;98279.22;;;21.14;92.17
38267;BME280;24063;51.794;19.578;2022-08-18T00:16:55;98281.81;;;21.13;92.07
38267;BME280;24063;51.794;19.578;2022-08-18T00:17:56;98281.71;;;21.13;92.19
38267;BME280;24063;51.794;19.578;2022-08-18T00:18:58;98283.17;;;21.12;92.25
38267;BME280;24063;51.794;19.578;2022-08-18T00:20:02;98280.73;;;21.12;92.29
38267;BME280;24063;51.794;19.578;2022-08-18T00:21:04;98283.56;;;21.12;92.35
38267;BME280;24063;51.794;19.578;2022-08-18T00:22:07;98284.96;;;21.12;92.45
38267;BME280;24063;51.794;19.578;2022-08-18T00:23:15;98287.64;;;21.11;92.42
38267;BME280;24063;51.794;19.578;2022-08-18T00:24:17;98283.09;;;21.11;92.27
38267;BME280;24063;51.794;19.578;2022-08-18T00:25:19;98292.11;;;21.11;92.16
38267;BME280;24063;51.794;19.578;2022-08-18T00:26:21;98288.44;;;21.12;92.20
38267;BME280;24063;51.794;19.578;2022-08-18T00:27:29;98286.90;;;21.13;92.08
38267;BME280;24063;51.794;19.578;2022-08-18T00:28:31;98287.70;;;21.14;92.04
38267;BME280;24063;51.794;19.578;2022-08-18T00:29:32;98284.20;;;21.16;92.15
38267;BME280;24063;51.794;19.578;2022-08-18T00:30:34;98279.61;;;21.16;92.04
38267;BME280;24063;51.794;19.578;2022-08-18T00:31:36;98285.73;;;21.17;91.92
38267;BME280;24063;51.794;19.578;2022-08-18T00:32:42;98283.61;;;21.17;91.79
38267;BME280;24063;51.794;19.578;2022-08-18T00:33:44;98283.64;;;21.18;91.74
38267;BME280;24063;51.794;19.578;2022-08-18T00:34:46;98283.41;;;21.18;91.70
38267;BME280;24063;51.794;19.578;2022-08-18T00:35:48;98284.88;;;21.17;91.71
38267;BME280;24063;51.794;19.578;2022-08-18T00:36:50;98283.27;;;21.15;91.64
38267;BME280;24063;51.794;19.578;2022-08-18T00:37:54;98284.27;;;21.15;91.81
38267;BME280;24063;51.794;19.578;2022-08-18T00:38:56;98285.96;;;21.14;91.77
38267;BME280;24063;51.794;19.578;2022-08-18T00:39:59;98287.90;;;21.12;91.89
38267;BME280;24063;51.794;19.578;2022-08-18T00:41:02;98286.38;;;21.11;92.02
38267;BME280;24063;51.794;19.578;2022-08-18T00:42:15;98284.34;;;21.11;92.05
38267;BME280;24063;51.794;19.578;2022-08-18T00:43:43;98288.98;;;21.12;92.15
38267;BME280;24063;51.794;19.578;2022-08-18T00:44:45;98286.84;;;21.14;92.24
38267;BME280;24063;51.794;19.578;2022-08-18T00:45:47;98284.66;;;21.15;91.96
38267;BME280;24063;51.794;19.578;2022-08-18T00:46:50;98285.33;;;21.16;91.72
38267;BME280;24063;51.794;19.578;2022-08-18T00:47:52;98288.64;;;21.17;92.01
38267;BME280;24063;51.794;19.578;2022-08-18T00:48:55;98288.85;;;21.16;91.87
38267;BME280;24063;51.794;19.578;2022-08-18T00:49:57;98288.91;;;21.16;91.94
38267;BME280;24063;51.794;19.578;2022-08-18T00:51:05;98287.36;;;21.16;91.94
38267;BME280;24063;51.794;19.578;2022-08-18T00:52:11;98286.02;;;21.16;92.19
38267;BME280;24063;51.794;19.578;2022-08-18T00:54:35;98283.14;;;21.10;92.58
38267;BME280;24063;51.794;19.578;2022-08-18T00:55:40;98280.70;;;21.10;92.39
38267;BME280;24063;51.794;19.578;2022-08-18T00:56:59;98282.70;;;21.09;92.64
38267;BME280;24063;51.794;19.578;2022-08-18T00:58:10;98281.64;;;21.07;92.60
38267;BME280;24063;51.794;19.578;2022-08-18T00:59:44;98281.97;;;21.05;92.75
38267;BME280;24063;51.794;19.578;2022-08-18T01:00:49;98283.77;;;21.04;92.77
38267;BME280;24063;51.794;19.578;2022-08-18T01:01:55;98284.40;;;21.04;92.80
38267;BME280;24063;51.794;19.578;2022-08-18T01:03:09;98286.97;;;21.04;92.66
38267;BME280;24063;51.794;19.578;2022-08-18T01:04:19;98287.77;;;21.05;92.58
38267;BME280;24063;51.794;19.578;2022-08-18T01:05:37;98282.13;;;21.04;92.60
38267;BME280;24063;51.794;19.578;2022-08-18T01:06:47;98285.10;;;21.04;92.63
38267;BME280;24063;51.794;19.578;2022-08-18T01:07:52;98282.08;;;21.03;92.71
38267;BME280;24063;51.794;19.578;2022-08-18T01:08:54;98279.91;;;21.01;92.76
38267;BME280;24063;51.794;19.578;2022-08-18T01:09:56;98278.34;;;21.01;92.83
38267;BME280;24063;51.794;19.578;2022-08-18T01:11:02;98276.44;;;21.00;92.87
38267;BME280;24063;51.794;19.578;2022-08-18T01:12:04;98276.64;;;21.00;93.07
38267;BME280;24063;51.794;19.578;2022-08-18T01:13:29;98277.51;;;21.00;93.12
38267;BME280;24063;51.794;19.578;2022-08-18T01:14:33;98278.60;;;20.99;93.19
38267;BME280;24063;51.794;19.578;2022-08-18T01:15:36;98274.10;;;20.98;93.12
38267;BME280;24063;51.794;19.578;2022-08-18T01:16:38;98272.64;;;20.99;93.14
38267;BME280;24063;51.794;19.578;2022-08-18T01:18:05;98270.00;;;21.00;93.09
38267;BME280;24063;51.794;19.578;2022-08-18T01:19:27;98270.34;;;21.02;93.23
38267;BME280;24063;51.794;19.578;2022-08-18T01:23:52;98276.35;;;21.03;92.73
38267;BME280;24063;51.794;19.578;2022-08-18T01:24:59;98271.69;;;21.02;92.90
38267;BME280;24063;51.794;19.578;2022-08-18T01:26:21;98274.11;;;21.02;93.22
38267;BME280;24063;51.794;19.578;2022-08-18T01:27:25;98273.39;;;21.01;93.08
38267;BME280;24063;51.794;19.578;2022-08-18T01:28:31;98270.71;;;21.01;93.00
38267;BME280;24063;51.794;19.578;2022-08-18T01:29:35;98270.31;;;21.01;93.07
38267;BME280;24063;51.794;19.578;2022-08-18T01:30:51;98272.11;;;21.00;93.03
38267;BME280;24063;51.794;19.578;2022-08-18T01:31:56;98278.05;;;21.01;93.04
38267;BME280;24063;51.794;19.578;2022-08-18T01:32:58;98278.39;;;21.03;93.01
38267;BME280;24063;51.794;19.578;2022-08-18T01:34:00;98273.67;;;21.03;92.83
38267;BME280;24063;51.794;19.578;2022-08-18T01:35:04;98278.70;;;21.03;92.77
38267;BME280;24063;51.794;19.578;2022-08-18T01:36:18;98277.98;;;21.05;93.01
38267;BME280;24063;51.794;19.578;2022-08-18T01:37:23;98276.50;;;21.06;92.66
38267;BME280;24063;51.794;19.578;2022-08-18T01:38:25;98279.27;;;21.07;92.67
38267;BME280;24063;51.794;19.578;2022-08-18T01:39:27;98280.76;;;21.06;92.49
38267;BME280;24063;51.794;19.578;2022-08-18T01:40:48;98281.34;;;21.05;92.59
38267;BME280;24063;51.794;19.578;2022-08-18T01:42:14;98283.94;;;21.02;92.65
38267;BME280;24063;51.794;19.578;2022-08-18T01:43:20;98283.98;;;21.01;92.77
38267;BME280;24063;51.794;19.578;2022-08-18T01:44:21;98285.75;;;21.00;92.84
38267;BME280;24063;51.794;19.578;2022-08-18T01:45:23;98288.24;;;20.99;93.02
38267;BME280;24063;51.794;19.578;2022-08-18T01:46:27;98285.70;;;20.98;93.15
38267;BME280;24063;51.794;19.578;2022-08-18T01:47:31;98284.11;;;20.97;93.33
38267;BME280;24063;51.794;19.578;2022-08-18T01:48:49;98283.52;;;20.95;93.10
38267;BME280;24063;51.794;19.578;2022-08-18T01:49:51;98283.21;;;20.95;93.26
38267;BME280;24063;51.794;19.578;2022-08-18T01:50:53;98285.75;;;20.93;93.19
38267;BME280;24063;51.794;19.578;2022-08-18T01:51:57;98282.09;;;20.91;93.36
38267;BME280;24063;51.794;19.578;2022-08-18T01:52:59;98285.23;;;20.91;93.36
38267;BME280;24063;51.794;19.578;2022-08-18T01:54:03;98283.55;;;20.91;93.56
38267;BME280;24063;51.794;19.578;2022-08-18T01:55:06;98284.03;;;20.91;93.58
38267;BME280;24063;51.794;19.578;2022-08-18T01:56:08;98284.19;;;20.90;93.70
38267;BME280;24063;51.794;19.578;2022-08-18T01:57:10;98283.52;;;20.89;93.54
38267;BME280;24063;51.794;19.578;2022-08-18T01:58:13;98281.22;;;20.88;93.62
38267;BME280;24063;51.794;19.578;2022-08-18T01:59:16;98280.48;;;20.87;93.75
38267;BME280;24063;51.794;19.578;2022-08-18T02:00:17;98280.01;;;20.87;93.84
38267;BME280;24063;51.794;19.578;2022-08-18T02:01:22;98280.17;;;20.87;93.94
38267;BME280;24063;51.794;19.578;2022-08-18T02:02:37;98281.39;;;20.88;93.95
38267;BME280;24063;51.794;19.578;2022-08-18T02:03:45;98279.11;;;20.89;93.78
38267;BME280;24063;51.794;19.578;2022-08-18T02:04:47;98277.75;;;20.88;93.77
38267;BME280;24063;51.794;19.578;2022-08-18T02:05:50;98276.29;;;20.89;93.74
38267;BME280;24063;51.794;19.578;2022-08-18T02:06:53;98276.06;;;20.89;93.77
38267;BME280;24063;51.794;19.578;2022-08-18T02:07:56;98278.19;;;20.89;93.80
38267;BME280;24063;51.794;19.578;2022-08-18T02:08:58;98281.44;;;20.90;93.86
38267;BME280;24063;51.794;19.578;2022-08-18T02:10:00;98279.33;;;20.91;93.84
38267;BME280;24063;51.794;19.578;2022-08-18T02:11:03;98278.61;;;20.91;93.63
38267;BME280;24063;51.794;19.578;2022-08-18T02:12:06;98277.98;;;20.90;93.68
38267;BME280;24063;51.794;19.578;2022-08-18T02:13:08;98275.60;;;20.89;93.67
38267;BME280;24063;51.794;19.578;2022-08-18T02:14:10;98275.83;;;20.89;93.72
38267;BME280;24063;51.794;19.578;2022-08-18T02:15:12;98274.95;;;20.88;93.67
38267;BME280;24063;51.794;19.578;2022-08-18T02:16:14;98276.20;;;20.89;93.72
38267;BME280;24063;51.794;19.578;2022-08-18T02:17:17;98278.48;;;20.89;93.68
38267;BME280;24063;51.794;19.578;2022-08-18T02:18:23;98280.37;;;20.89;93.64
38267;BME280;24063;51.794;19.578;2022-08-18T02:19:46;98278.75;;;20.90;93.56
38267;BME280;24063;51.794;19.578;2022-08-18T02:20:48;98278.67;;;20.90;93.71
38267;BME280;24063;51.794;19.578;2022-08-18T02:21:51;98274.52;;;20.90;93.63
38267;BME280;24063;51.794;19.578;2022-08-18T02:22:53;98275.55;;;20.91;93.59
38267;BME280;24063;51.794;19.578;2022-08-18T02:23:55;98274.83;;;20.90;93.66
38267;BME280;24063;51.794;19.578;2022-08-18T02:24:57;98274.45;;;20.90;93.43
38267;BME280;24063;51.794;19.578;2022-08-18T02:26:04;98268.25;;;20.90;93.43
38267;BME280;24063;51.794;19.578;2022-08-18T02:27:07;98270.38;;;20.91;93.40
38267;BME280;24063;51.794;19.578;2022-08-18T02:28:10;98268.09;;;20.90;93.55
38267;BME280;24063;51.794;19.578;2022-08-18T02:29:12;98273.04;;;20.90;93.47
38267;BME280;24063;51.794;19.578;2022-08-18T02:30:17;98273.80;;;20.90;93.57
38267;BME280;24063;51.794;19.578;2022-08-18T02:31:22;98272.34;;;20.88;93.56
38267;BME280;24063;51.794;19.578;2022-08-18T02:32:25;98271.84;;;20.87;93.65
38267;BME280;24063;51.794;19.578;2022-08-18T02:33:29;98273.02;;;20.86;93.67
38267;BME280;24063;51.794;19.578;2022-08-18T02:34:32;98272.94;;;20.87;93.72
38267;BME280;24063;51.794;19.578;2022-08-18T02:35:35;98271.93;;;20.87;93.77
38267;BME280;24063;51.794;19.578;2022-08-18T02:36:37;98270.05;;;20.87;93.87
38267;BME280;24063;51.794;19.578;2022-08-18T02:37:41;98270.77;;;20.87;93.65
38267;BME280;24063;51.794;19.578;2022-08-18T02:38:48;98264.88;;;20.88;93.66
38267;BME280;24063;51.794;19.578;2022-08-18T02:40:00;98266.52;;;20.88;93.75
38267;BME280;24063;51.794;19.578;2022-08-18T02:41:05;98263.38;;;20.87;93.81
38267;BME280;24063;51.794;19.578;2022-08-18T02:42:07;98262.31;;;20.86;93.71
38267;BME280;24063;51.794;19.578;2022-08-18T02:43:09;98265.42;;;20.85;93.39
38267;BME280;24063;51.794;19.578;2022-08-18T02:44:11;98263.88;;;20.83;93.60
38267;BME280;24063;51.794;19.578;2022-08-18T02:45:13;98262.19;;;20.81;93.57
38267;BME280;24063;51.794;19.578;2022-08-18T02:46:15;98257.80;;;20.79;93.48
38267;BME280;24063;51.794;19.578;2022-08-18T02:47:20;98257.12;;;20.77;93.82
38267;BME280;24063;51.794;19.578;2022-08-18T02:48:22;98254.95;;;20.75;93.64
38267;BME280;24063;51.794;19.578;2022-08-18T02:49:36;98255.52;;;20.72;93.71
38267;BME280;24063;51.794;19.578;2022-08-18T02:50:38;98258.83;;;20.70;93.95
38267;BME280;24063;51.794;19.578;2022-08-18T02:51:51;98259.37;;;20.67;94.15
38267;BME280;24063;51.794;19.578;2022-08-18T02:52:53;98264.79;;;20.64;94.42
38267;BME280;24063;51.794;19.578;2022-08-18T02:53:55;98263.66;;;20.62;94.58
38267;BME280;24063;51.794;19.578;2022-08-18T02:55:01;98264.91;;;20.61;94.74
38267;BME280;24063;51.794;19.578;2022-08-18T02:56:06;98262.68;;;20.57;94.87
38267;BME280;24063;51.794;19.578;2022-08-18T02:57:46;98263.70;;;20.54;94.64
38267;BME280;24063;51.794;19.578;2022-08-18T02:58:57;98258.23;;;20.51;94.87
38267;BME280;24063;51.794;19.578;2022-08-18T02:59:59;98259.68;;;20.50;94.94
38267;BME280;24063;51.794;19.578;2022-08-18T03:01:01;98258.55;;;20.47;94.86
38267;BME280;24063;51.794;19.578;2022-08-18T03:02:05;98261.53;;;20.44;94.80
38267;BME280;24063;51.794;19.578;2022-08-18T03:03:07;98262.66;;;20.42;95.10
38267;BME280;24063;51.794;19.578;2022-08-18T03:04:12;98265.72;;;20.40;95.38
38267;BME280;24063;51.794;19.578;2022-08-18T03:05:15;98266.01;;;20.38;95.60
38267;BME280;24063;51.794;19.578;2022-08-18T03:06:19;98263.63;;;20.37;95.86
38267;BME280;24063;51.794;19.578;2022-08-18T03:07:21;98266.19;;;20.36;95.85
38267;BME280;24063;51.794;19.578;2022-08-18T03:08:23;98266.33;;;20.36;96.13
38267;BME280;24063;51.794;19.578;2022-08-18T03:09:25;98266.71;;;20.36;96.18
38267;BME280;24063;51.794;19.578;2022-08-18T03:10:27;98266.52;;;20.36;96.29
38267;BME280;24063;51.794;19.578;2022-08-18T03:11:35;98262.51;;;20.36;96.33
38267;BME280;24063;51.794;19.578;2022-08-18T03:12:37;98262.65;;;20.36;96.04
38267;BME280;24063;51.794;19.578;2022-08-18T03:13:39;98262.21;;;20.34;96.22
38267;BME280;24063;51.794;19.578;2022-08-18T03:14:41;98259.36;;;20.33;96.28
38267;BME280;24063;51.794;19.578;2022-08-18T03:15:43;98260.64;;;20.32;96.43
38267;BME280;24063;51.794;19.578;2022-08-18T03:16:47;98262.57;;;20.31;96.58
38267;BME280;24063;51.794;19.578;2022-08-18T03:17:55;98264.83;;;20.30;96.76
38267;BME280;24063;51.794;19.578;2022-08-18T03:18:57;98262.89;;;20.31;96.75
38267;BME280;24063;51.794;19.578;2022-08-18T03:19:59;98263.71;;;20.32;97.02
38267;BME280;24063;51.794;19.578;2022-08-18T03:21:05;98270.17;;;20.33;97.15
38267;BME280;24063;51.794;19.578;2022-08-18T03:22:08;98267.21;;;20.33;97.18
38267;BME280;24063;51.794;19.578;2022-08-18T03:23:30;98271.27;;;20.36;97.06
38267;BME280;24063;51.794;19.578;2022-08-18T03:24:31;98271.02;;;20.38;97.23
38267;BME280;24063;51.794;19.578;2022-08-18T03:25:33;98268.63;;;20.40;96.98
38267;BME280;24063;51.794;19.578;2022-08-18T03:26:41;98268.66;;;20.41;96.93
38267;BME280;24063;51.794;19.578;2022-08-18T03:27:43;98267.02;;;20.44;96.85
38267;BME280;24063;51.794;19.578;2022-08-18T03:28:48;98266.42;;;20.45;96.84
38267;BME280;24063;51.794;19.578;2022-08-18T03:29:50;98268.36;;;20.46;96.61
38267;BME280;24063;51.794;19.578;2022-08-18T03:30:52;98267.89;;;20.47;96.47
38267;BME280;24063;51.794;19.578;2022-08-18T03:31:54;98263.90;;;20.48;96.48
38267;BME280;24063;51.794;19.578;2022-08-18T03:32:55;98264.05;;;20.47;96.31
38267;BME280;24063;51.794;19.578;2022-08-18T03:33:58;98261.90;;;20.46;96.38
38267;BME280;24063;51.794;19.578;2022-08-18T03:35:02;98262.65;;;20.45;96.49
38267;BME280;24063;51.794;19.578;2022-08-18T03:36:08;98262.09;;;20.44;96.27
38267;BME280;24063;51.794;19.578;2022-08-18T03:37:13;98261.94;;;20.42;96.47
38267;BME280;24063;51.794;19.578;2022-08-18T03:38:16;98262.63;;;20.41;96.71
38267;BME280;24063;51.794;19.578;2022-08-18T03:39:19;98263.30;;;20.40;96.61
38267;BME280;24063;51.794;19.578;2022-08-18T03:40:23;98262.48;;;20.38;96.35
38267;BME280;24063;51.794;19.578;2022-08-18T03:41:27;98265.33;;;20.36;96.32
38267;BME280;24063;51.794;19.578;2022-08-18T03:42:49;98263.77;;;20.34;96.62
38267;BME280;24063;51.794;19.578;2022-08-18T03:43:51;98269.31;;;20.33;96.46
38267;BME280;24063;51.794;19.578;2022-08-18T03:44:53;98267.14;;;20.31;96.52
38267;BME280;24063;51.794;19.578;2022-08-18T03:46:00;98270.46;;;20.30;96.83
38267;BME280;24063;51.794;19.578;2022-08-18T03:47:02;98271.34;;;20.28;96.88
38267;BME280;24063;51.794;19.578;2022-08-18T03:48:04;98275.61;;;20.26;96.97
38267;BME280;24063;51.794;19.578;2022-08-18T03:49:06;98274.14;;;20.24;97.06
38267;BME280;24063;51.794;19.578;2022-08-18T03:50:08;98276.73;;;20.22;96.91
38267;BME280;24063;51.794;19.578;2022-08-18T03:51:15;98277.17;;;20.20;97.12
38267;BME280;24063;51.794;19.578;2022-08-18T03:52:18;98275.02;;;20.18;97.11
38267;BME280;24063;51.794;19.578;2022-08-18T03:53:20;98275.84;;;20.16;97.31
38267;BME280;24063;51.794;19.578;2022-08-18T03:54:22;98279.64;;;20.17;97.18
38267;BME280;24063;51.794;19.578;2022-08-18T03:55:26;98278.35;;;20.15;97.47
38267;BME280;24063;51.794;19.578;2022-08-18T03:56:34;98280.30;;;20.15;97.24
38267;BME280;24063;51.794;19.578;2022-08-18T03:57:36;98286.65;;;20.15;97.18
38267;BME280;24063;51.794;19.578;2022-08-18T03:58:39;98282.30;;;20.14;97.34
38267;BME280;24063;51.794;19.578;2022-08-18T03:59:41;98285.83;;;20.14;97.48
38267;BME280;24063;51.794;19.578;2022-08-18T04:00:43;98284.87;;;20.13;97.32
38267;BME280;24063;51.794;19.578;2022-08-18T04:01:47;98286.13;;;20.13;97.33
38267;BME280;24063;51.794;19.578;2022-08-18T04:02:50;98288.00;;;20.13;97.75
38267;BME280;24063;51.794;19.578;2022-08-18T04:03:59;98287.66;;;20.13;97.89
38267;BME280;24063;51.794;19.578;2022-08-18T04:05:02;98289.00;;;20.13;97.96
38267;BME280;24063;51.794;19.578;2022-08-18T04:06:05;98291.83;;;20.12;98.07
38267;BME280;24063;51.794;19.578;2022-08-18T04:07:13;98290.84;;;20.13;98.36
38267;BME280;24063;51.794;19.578;2022-08-18T04:08:17;98290.73;;;20.15;98.57
38267;BME280;24063;51.794;19.578;2022-08-18T04:09:22;98296.86;;;20.16;98.46
38267;BME280;24063;51.794;19.578;2022-08-18T04:10:25;98299.16;;;20.16;98.65
38267;BME280;24063;51.794;19.578;2022-08-18T04:11:27;98297.08;;;20.17;98.68
38267;BME280;24063;51.794;19.578;2022-08-18T04:12:36;98298.71;;;20.20;99.00
38267;BME280;24063;51.794;19.578;2022-08-18T04:13:39;98301.08;;;20.23;99.06
38267;BME280;24063;51.794;19.578;2022-08-18T04:14:44;98301.49;;;20.26;98.89
38267;BME280;24063;51.794;19.578;2022-08-18T04:15:48;98300.11;;;20.30;99.03
38267;BME280;24063;51.794;19.578;2022-08-18T04:16:50;98301.49;;;20.34;98.75
38267;BME280;24063;51.794;19.578;2022-08-18T04:17:52;98303.87;;;20.37;98.56
38267;BME280;24063;51.794;19.578;2022-08-18T04:19:05;98300.27;;;20.41;98.64
38267;BME280;24063;51.794;19.578;2022-08-18T04:20:07;98303.59;;;20.45;98.62
38267;BME280;24063;51.794;19.578;2022-08-18T04:21:11;98297.77;;;20.47;98.64
38267;BME280;24063;51.794;19.578;2022-08-18T04:22:14;98298.30;;;20.48;98.67
38267;BME280;24063;51.794;19.578;2022-08-18T04:23:18;98299.70;;;20.51;98.46
38267;BME280;24063;51.794;19.578;2022-08-18T04:24:20;98298.38;;;20.54;98.44
38267;BME280;24063;51.794;19.578;2022-08-18T04:25:21;98295.20;;;20.55;98.28
38267;BME280;24063;51.794;19.578;2022-08-18T04:26:23;98292.58;;;20.57;98.36
38267;BME280;24063;51.794;19.578;2022-08-18T04:27:27;98296.17;;;20.59;98.51
38267;BME280;24063;51.794;19.578;2022-08-18T04:28:30;98295.22;;;20.61;98.16
38267;BME280;24063;51.794;19.578;2022-08-18T04:29:31;98294.84;;;20.61;98.45
38267;BME280;24063;51.794;19.578;2022-08-18T04:30:33;98299.44;;;20.63;98.38
38267;BME280;24063;51.794;19.578;2022-08-18T04:31:36;98296.55;;;20.66;98.26
38267;BME280;24063;51.794;19.578;2022-08-18T04:32:38;98300.29;;;20.68;98.34
38267;BME280;24063;51.794;19.578;2022-08-18T04:33:41;98293.67;;;20.70;98.32
38267;BME280;24063;51.794;19.578;2022-08-18T04:34:42;98298.48;;;20.73;98.27
38267;BME280;24063;51.794;19.578;2022-08-18T04:35:44;98297.85;;;20.76;98.37
38267;BME280;24063;51.794;19.578;2022-08-18T04:36:48;98298.86;;;20.79;98.28
38267;BME280;24063;51.794;19.578;2022-08-18T04:37:51;98300.19;;;20.82;98.01
38267;BME280;24063;51.794;19.578;2022-08-18T04:38:54;98299.47;;;20.84;97.95
38267;BME280;24063;51.794;19.578;2022-08-18T04:39:57;98299.70;;;20.87;97.81
38267;BME280;24063;51.794;19.578;2022-08-18T04:41:00;98303.86;;;20.89;97.69
38267;BME280;24063;51.794;19.578;2022-08-18T04:42:02;98305.29;;;20.90;97.26
38267;BME280;24063;51.794;19.578;2022-08-18T04:43:05;98307.53;;;20.89;97.25
38267;BME280;24063;51.794;19.578;2022-08-18T04:44:08;98307.42;;;20.90;97.21
38267;BME280;24063;51.794;19.578;2022-08-18T04:45:11;98303.84;;;20.92;96.70
38267;BME280;24063;51.794;19.578;2022-08-18T04:46:13;98308.80;;;20.92;96.38
38267;BME280;24063;51.794;19.578;2022-08-18T04:47:15;98307.94;;;20.92;96.45
38267;BME280;24063;51.794;19.578;2022-08-18T04:48:17;98305.30;;;20.93;96.64
38267;BME280;24063;51.794;19.578;2022-08-18T04:49:21;98309.90;;;20.95;96.26
38267;BME280;24063;51.794;19.578;2022-08-18T04:50:26;98309.01;;;20.97;96.23
38267;BME280;24063;51.794;19.578;2022-08-18T04:51:30;98312.98;;;20.99;96.06
38267;BME280;24063;51.794;19.578;2022-08-18T04:52:52;98315.63;;;21.01;95.76
38267;BME280;24063;51.794;19.578;2022-08-18T04:54:12;98313.52;;;21.01;95.78
38267;BME280;24063;51.794;19.578;2022-08-18T04:55:14;98311.27;;;21.03;95.68
38267;BME280;24063;51.794;19.578;2022-08-18T04:56:25;98308.95;;;21.04;95.46
38267;BME280;24063;51.794;19.578;2022-08-18T04:57:28;98312.60;;;21.06;95.25
38267;BME280;24063;51.794;19.578;2022-08-18T04:58:34;98314.27;;;21.06;95.25
38267;BME280;24063;51.794;19.578;2022-08-18T04:59:37;98316.80;;;21.07;95.28
38267;BME280;24063;51.794;19.578;2022-08-18T05:00:40;98313.77;;;21.08;95.30
38267;BME280;24063;51.794;19.578;2022-08-18T05:01:45;98320.40;;;21.09;95.40
38267;BME280;24063;51.794;19.578;2022-08-18T05:02:48;98324.47;;;21.12;95.20
38267;BME280;24063;51.794;19.578;2022-08-18T05:03:52;98321.19;;;21.16;95.06
38267;BME280;24063;51.794;19.578;2022-08-18T05:04:54;98318.14;;;21.19;94.75
38267;BME280;24063;51.794;19.578;2022-08-18T05:05:57;98321.56;;;21.21;94.58
38267;BME280;24063;51.794;19.578;2022-08-18T05:07:00;98320.60;;;21.23;94.50
38267;BME280;24063;51.794;19.578;2022-08-18T05:08:02;98315.23;;;21.25;94.36
38267;BME280;24063;51.794;19.578;2022-08-18T05:09:07;98318.83;;;21.27;94.08
38267;BME280;24063;51.794;19.578;2022-08-18T05:10:09;98319.88;;;21.28;94.09
38267;BME280;24063;51.794;19.578;2022-08-18T05:11:13;98322.20;;;21.30;93.89
38267;BME280;24063;51.794;19.578;2022-08-18T05:12:16;98319.86;;;21.31;93.74
38267;BME280;24063;51.794;19.578;2022-08-18T05:13:20;98322.29;;;21.34;93.69
38267;BME280;24063;51.794;19.578;2022-08-18T05:14:22;98323.96;;;21.35;93.25
38267;BME280;24063;51.794;19.578;2022-08-18T05:15:25;98320.45;;;21.36;93.25
38267;BME280;24063;51.794;19.578;2022-08-18T05:16:28;98320.68;;;21.38;92.94
38267;BME280;24063;51.794;19.578;2022-08-18T05:17:36;98320.89;;;21.40;92.72
38267;BME280;24063;51.794;19.578;2022-08-18T05:18:40;98321.43;;;21.43;92.92
38267;BME280;24063;51.794;19.578;2022-08-18T05:19:43;98322.94;;;21.46;92.59
38267;BME280;24063;51.794;19.578;2022-08-18T05:20:47;98322.95;;;21.49;92.44
38267;BME280;24063;51.794;19.578;2022-08-18T05:21:50;98322.52;;;21.51;92.16
38267;BME280;24063;51.794;19.578;2022-08-18T05:23:00;98324.77;;;21.56;92.10
38267;BME280;24063;51.794;19.578;2022-08-18T05:24:03;98325.05;;;21.61;92.01
38267;BME280;24063;51.794;19.578;2022-08-18T05:25:10;98323.55;;;21.64;91.70
38267;BME280;24063;51.794;19.578;2022-08-18T05:26:14;98322.23;;;21.67;91.67
38267;BME280;24063;51.794;19.578;2022-08-18T05:27:16;98318.14;;;21.71;91.61
38267;BME280;24063;51.794;19.578;2022-08-18T05:28:17;98315.88;;;21.72;91.52
38267;BME280;24063;51.794;19.578;2022-08-18T05:29:19;98322.21;;;21.77;91.43
38267;BME280;24063;51.794;19.578;2022-08-18T05:30:24;98320.80;;;21.80;91.60
38267;BME280;24063;51.794;19.578;2022-08-18T05:31:27;98319.14;;;21.83;91.26
38267;BME280;24063;51.794;19.578;2022-08-18T05:32:33;98320.48;;;21.87;90.99
38267;BME280;24063;51.794;19.578;2022-08-18T05:33:51;98318.61;;;21.91;90.16
38267;BME280;24063;51.794;19.578;2022-08-18T05:34:53;98319.70;;;21.94;90.45
38267;BME280;24063;51.794;19.578;2022-08-18T05:36:01;98320.56;;;21.98;90.31
38267;BME280;24063;51.794;19.578;2022-08-18T05:37:17;98317.46;;;22.03;90.21
38267;BME280;24063;51.794;19.578;2022-08-18T05:38:39;98320.27;;;22.09;90.04
38267;BME280;24063;51.794;19.578;2022-08-18T05:40:02;98320.95;;;22.15;89.78
38267;BME280;24063;51.794;19.578;2022-08-18T05:41:23;98318.51;;;22.21;89.43
38267;BME280;24063;51.794;19.578;2022-08-18T05:42:30;98320.95;;;22.28;89.25
38267;BME280;24063;51.794;19.578;2022-08-18T05:43:37;98321.40;;;22.34;89.31
38267;BME280;24063;51.794;19.578;2022-08-18T05:44:54;98327.70;;;22.41;89.28
38267;BME280;24063;51.794;19.578;2022-08-18T05:45:58;98328.77;;;22.48;89.38